Time;durP1;ratioP1;P1;durP2;ratioP2;P2;SDS_P1;SDS_P2;PMS_P1;PMS_P2;Temp;Humidity;BMP_temperature;BMP_pressure;BME280_temperature;BME280_humidity;BME280_pressure;Samples;Min_cycle;Max_cycle;Signal;HPM_P1;HPM_P2
2021/08/24 00:00:19;;;;;;;;;;;;;;;16.77;77.18;100859.13;5012418;28;20407;-62
2021/08/24 00:03:03;;;;;;;;;;;;;;;16.77;77.05;100867.88;5012875;28;19924;-63
2021/08/24 00:05:53;;;;;;;;;;;;;;;16.75;77.08;100870.47;5016584;28;19924;-63
2021/08/24 00:08:40;;;;;;;;;;;;;;;16.75;77.01;100866.97;5016552;28;19923;-61
2021/08/24 00:11:24;;;;;;;;;;;;;;;16.74;76.99;100876.56;5017638;28;19923;-61
2021/08/24 00:14:11;;;;;;;;;;;;;;;16.71;76.95;100860.88;5017530;28;19924;-64
2021/08/24 00:16:55;;;;;;;;;;;;;;;16.72;76.95;100870.47;5016889;28;19986;-64
2021/08/24 00:19:42;;;;;;;;;;;;;;;16.70;77.03;100856.50;5017346;28;20499;-63
2021/08/24 00:22:26;;;;;;;;;;;;;;;16.69;76.75;100856.47;5017267;28;19924;-63
2021/08/24 00:25:11;;;;;;;;;;;;;;;16.67;76.85;100866.97;5017029;28;19924;-63
2021/08/24 00:28:00;;;;;;;;;;;;;;;16.67;76.91;100858.22;5015867;28;20016;-63
2021/08/24 00:30:53;;;;;;;;;;;;;;;16.66;76.66;100862.59;5016482;28;20323;-63
2021/08/24 00:33:40;;;;;;;;;;;;;;;16.65;76.82;100868.69;5015822;28;19924;-63
2021/08/24 00:36:29;;;;;;;;;;;;;;;16.63;76.86;100867.81;5015724;28;20087;-63
2021/08/24 00:39:13;;;;;;;;;;;;;;;16.63;76.84;100872.19;5017152;28;19963;-63
2021/08/24 00:42:00;;;;;;;;;;;;;;;16.62;76.66;100873.03;5017193;28;19972;-63
2021/08/24 00:44:46;;;;;;;;;;;;;;;16.61;76.86;100872.16;5002524;28;19976;-63
2021/08/24 00:47:30;;;;;;;;;;;;;;;16.59;77.01;100866.03;5017363;28;19925;-63
2021/08/24 00:50:26;;;;;;;;;;;;;;;16.58;76.84;100867.78;5017242;28;19927;-63
2021/08/24 00:53:12;;;;;;;;;;;;;;;16.58;76.73;100864.31;5016441;28;19940;-63
2021/08/24 00:55:56;;;;;;;;;;;;;;;16.57;76.73;100867.78;5016989;28;19924;-63
2021/08/24 00:58:43;;;;;;;;;;;;;;;16.56;76.64;100864.28;5001719;28;19971;-63
2021/08/24 01:01:27;;;;;;;;;;;;;;;16.55;76.71;100866.91;5017262;28;20415;-63
2021/08/24 01:04:17;;;;;;;;;;;;;;;16.55;76.63;100866.91;5017067;28;20376;-63
2021/08/24 01:07:04;;;;;;;;;;;;;;;16.54;76.70;100875.63;5001325;28;19924;-61
2021/08/24 01:10:00;;;;;;;;;;;;;;;16.52;76.50;100872.13;5016908;28;19925;-61
2021/08/24 01:13:13;;;;;;;;;;;;;;;16.52;76.59;100872.13;5016128;28;19925;-61
2021/08/24 01:16:02;;;;;;;;;;;;;;;16.50;76.69;100873.84;5011960;28;19924;-61
2021/08/24 01:19:10;;;;;;;;;;;;;;;16.49;76.63;100873.00;5015943;28;19924;-63
2021/08/24 01:22:03;;;;;;;;;;;;;;;16.48;76.40;100873.84;5002538;28;19924;-61
2021/08/24 01:24:59;;;;;;;;;;;;;;;16.49;76.41;100870.38;5015279;28;19971;-62
2021/08/24 01:27:58;;;;;;;;;;;;;;;16.49;76.64;100872.09;5016114;28;19924;-61
2021/08/24 01:30:48;;;;;;;;;;;;;;;16.49;76.53;100866.88;5015031;28;20400;-61
2021/08/24 01:33:36;;;;;;;;;;;;;;;16.49;76.41;100874.72;5016015;28;19924;-62
2021/08/24 01:36:24;;;;;;;;;;;;;;;16.48;76.47;100876.47;5016384;28;20468;-61
2021/08/24 01:39:17;;;;;;;;;;;;;;;16.48;76.44;100867.72;5015841;28;20016;-61
2021/08/24 01:42:13;;;;;;;;;;;;;;;16.48;76.33;100865.13;5015250;28;19971;-61
2021/08/24 01:45:09;;;;;;;;;;;;;;;16.49;76.40;100878.22;5015931;28;20289;-62
2021/08/24 01:48:04;;;;;;;;;;;;;;;16.47;76.52;100877.34;5016228;28;19925;-64
2021/08/24 01:50:57;;;;;;;;;;;;;;;16.48;76.34;100875.59;5015194;28;19924;-61
2021/08/24 01:54:07;;;;;;;;;;;;;;;16.46;76.33;100880.81;5014199;28;19967;-61
2021/08/24 01:56:54;;;;;;;;;;;;;;;16.46;76.20;100879.94;5000812;28;19924;-61
2021/08/24 01:59:41;;;;;;;;;;;;;;;16.44;76.34;100886.03;5014504;28;19924;-62
2021/08/24 02:02:27;;;;;;;;;;;;;;;16.44;76.39;100874.69;5015153;28;20422;-61
2021/08/24 02:05:14;;;;;;;;;;;;;;;16.43;76.12;100879.03;5014517;28;20438;-61
2021/08/24 02:08:10;;;;;;;;;;;;;;;16.41;76.30;100887.75;5015330;28;19963;-61
2021/08/24 02:10:56;;;;;;;;;;;;;;;16.41;76.21;100890.38;5015154;28;19971;-61
2021/08/24 02:13:41;;;;;;;;;;;;;;;16.38;76.04;100882.50;5015295;28;19967;-62
2021/08/24 02:16:28;;;;;;;;;;;;;;;16.36;76.05;100879.00;5014178;28;20435;-63
2021/08/24 02:19:14;;;;;;;;;;;;;;;16.35;75.98;100880.75;5015171;28;19923;-63
2021/08/24 02:22:02;;;;;;;;;;;;;;;16.33;76.17;100882.50;5000259;28;19926;-63
2021/08/24 02:24:49;;;;;;;;;;;;;;;16.33;75.97;100889.47;5015117;28;19924;-61
2021/08/24 02:27:36;;;;;;;;;;;;;;;16.32;75.99;100892.94;5015327;28;19924;-61
2021/08/24 02:30:20;;;;;;;;;;;;;;;16.31;76.02;100892.06;5015499;28;20331;-61
2021/08/24 02:33:05;;;;;;;;;;;;;;;16.30;76.18;100895.53;5014567;28;19928;-63
2021/08/24 02:35:55;;;;;;;;;;;;;;;16.31;75.95;100893.81;5014978;28;19960;-61
2021/08/24 02:38:43;;;;;;;;;;;;;;;16.29;76.12;100884.22;5015359;28;20386;-62
2021/08/24 02:41:43;;;;;;;;;;;;;;;16.29;75.92;100893.78;5014504;28;19990;-61
2021/08/24 02:44:32;;;;;;;;;;;;;;;16.28;75.87;100890.31;5014869;28;19924;-61
2021/08/24 02:47:16;;;;;;;;;;;;;;;16.26;75.93;100894.66;5015171;28;19943;-62
2021/08/24 02:50:01;;;;;;;;;;;;;;;16.26;76.08;100894.66;5013832;28;19929;-61
2021/08/24 02:52:45;;;;;;;;;;;;;;;16.25;75.87;100900.75;5013662;28;19924;-61
2021/08/24 02:55:29;;;;;;;;;;;;;;;16.24;75.78;100893.75;5014660;28;19923;-63
2021/08/24 02:58:13;;;;;;;;;;;;;;;16.24;75.86;100899.00;5014148;28;19990;-63
2021/08/24 03:00:57;;;;;;;;;;;;;;;16.25;75.98;100894.66;5014681;28;19924;-61
2021/08/24 03:03:42;;;;;;;;;;;;;;;16.24;75.79;100900.75;4999465;28;19991;-61
2021/08/24 03:06:27;;;;;;;;;;;;;;;16.23;75.69;100896.38;5014019;28;19925;-61
2021/08/24 03:09:13;;;;;;;;;;;;;;;16.23;75.78;100907.72;5014289;28;19953;-61
2021/08/24 03:11:59;;;;;;;;;;;;;;;16.23;76.17;100899.00;5014510;28;19973;-61
2021/08/24 03:14:48;;;;;;;;;;;;;;;16.23;75.84;100904.22;5014233;28;19971;-61
2021/08/24 03:17:40;;;;;;;;;;;;;;;16.21;75.67;100904.19;5014000;28;19972;-63
2021/08/24 03:20:28;;;;;;;;;;;;;;;16.20;75.91;100904.22;5013451;28;19925;-62
2021/08/24 03:23:13;;;;;;;;;;;;;;;16.19;75.71;100907.69;5014144;28;19944;-62
2021/08/24 03:25:58;;;;;;;;;;;;;;;16.18;75.87;100906.81;5013831;28;19926;-63
2021/08/24 03:28:42;;;;;;;;;;;;;;;16.18;75.59;100905.94;5014335;28;19975;-62
2021/08/24 03:31:27;;;;;;;;;;;;;;;16.16;75.61;100902.44;5013691;28;19924;-63
2021/08/24 03:34:11;;;;;;;;;;;;;;;16.14;75.71;100905.91;5014290;28;19971;-62
2021/08/24 03:36:55;;;;;;;;;;;;;;;16.12;75.72;100902.41;5014097;28;20295;-63
2021/08/24 03:39:39;;;;;;;;;;;;;;;16.11;75.65;100903.28;5017359;28;20300;-62
2021/08/24 03:42:23;;;;;;;;;;;;;;;16.09;75.50;100902.41;5020923;28;20012;-63
2021/08/24 03:45:08;;;;;;;;;;;;;;;16.09;75.40;100896.28;5020131;28;20016;-62
2021/08/24 03:47:52;;;;;;;;;;;;;;;16.07;75.50;100896.28;5006050;28;20009;-62
2021/08/24 03:50:39;;;;;;;;;;;;;;;16.05;75.50;100898.00;5020878;28;20392;-62
2021/08/24 03:53:23;;;;;;;;;;;;;;;16.06;75.48;100907.59;5019610;28;20285;-62
2021/08/24 03:56:07;;;;;;;;;;;;;;;16.05;75.50;100902.34;5020142;28;20340;-62
2021/08/24 03:58:51;;;;;;;;;;;;;;;16.04;75.50;100898.88;5020460;28;19963;-62
2021/08/24 04:01:38;;;;;;;;;;;;;;;16.03;75.22;100904.09;5020020;28;20020;-61
2021/08/24 04:04:22;;;;;;;;;;;;;;;16.02;75.33;100913.66;5019817;28;20324;-61
2021/08/24 04:07:06;;;;;;;;;;;;;;;16.01;75.38;100911.06;5020707;28;20272;-62
2021/08/24 04:09:53;;;;;;;;;;;;;;;16.00;75.42;100918.00;5019570;28;19984;-61
2021/08/24 04:12:37;;;;;;;;;;;;;;;15.97;75.30;100915.38;5020212;28;20056;-62
2021/08/24 04:15:20;;;;;;;;;;;;;;;15.96;75.40;100908.41;5019876;28;20011;-61
2021/08/24 04:18:07;;;;;;;;;;;;;;;15.94;75.25;100908.38;5020418;28;19940;-61
2021/08/24 04:20:51;;;;;;;;;;;;;;;15.93;75.16;100916.22;5020390;28;19923;-61
2021/08/24 04:23:35;;;;;;;;;;;;;;;15.92;75.41;100915.34;5018903;28;19927;-62
2021/08/24 04:26:19;;;;;;;;;;;;;;;15.91;75.18;100917.94;5019232;28;20392;-62
2021/08/24 04:29:06;;;;;;;;;;;;;;;15.90;75.12;100924.91;5020160;28;20052;-61
2021/08/24 04:31:50;;;;;;;;;;;;;;;15.89;75.16;100922.28;5020313;28;19943;-61
2021/08/24 04:34:34;;;;;;;;;;;;;;;15.90;75.10;100924.03;5020027;28;19924;-61
2021/08/24 04:37:18;;;;;;;;;;;;;;;15.90;75.34;100931.88;5020126;28;20277;-61
2021/08/24 04:40:02;;;;;;;;;;;;;;;15.90;75.28;100926.66;5020503;28;19971;-61
2021/08/24 04:42:46;;;;;;;;;;;;;;;15.89;75.35;100928.38;5020371;28;19923;-61
2021/08/24 04:45:30;;;;;;;;;;;;;;;15.89;75.18;100927.50;5020163;28;19925;-61
2021/08/24 04:48:14;;;;;;;;;;;;;;;15.88;74.99;100931.88;5019583;28;19971;-61
2021/08/24 04:50:59;;;;;;;;;;;;;;;15.85;75.07;100929.25;5018297;28;19963;-61
2021/08/24 04:53:43;;;;;;;;;;;;;;;15.86;75.07;100938.81;5016603;28;19971;-62
2021/08/24 04:56:26;;;;;;;;;;;;;;;15.86;74.99;100937.94;5016822;28;19924;-61
2021/08/24 04:59:10;;;;;;;;;;;;;;;15.84;75.06;100938.75;5017091;28;20320;-61
2021/08/24 05:01:54;;;;;;;;;;;;;;;15.84;75.18;100933.53;5016713;28;19948;-63
2021/08/24 05:04:38;;;;;;;;;;;;;;;15.85;75.13;100944.91;5015823;28;19925;-62
2021/08/24 05:07:22;;;;;;;;;;;;;;;15.83;74.99;100944.84;5016510;28;19966;-63
2021/08/24 05:10:07;;;;;;;;;;;;;;;15.83;75.16;100944.84;5016865;28;19963;-61
2021/08/24 05:12:51;;;;;;;;;;;;;;;15.82;75.13;100953.56;5001821;28;20016;-61
2021/08/24 05:15:35;;;;;;;;;;;;;;;15.83;74.94;100955.31;5015780;28;19975;-61
2021/08/24 05:18:20;;;;;;;;;;;;;;;15.83;75.13;100952.69;5015603;28;19995;-62
2021/08/24 05:21:06;;;;;;;;;;;;;;;15.83;74.92;100955.31;5016630;28;19964;-62
2021/08/24 05:23:50;;;;;;;;;;;;;;;15.83;75.11;100957.06;5015742;28;20280;-61
2021/08/24 05:26:37;;;;;;;;;;;;;;;15.83;74.96;100965.75;5016690;28;19924;-61
2021/08/24 05:29:21;;;;;;;;;;;;;;;15.83;75.04;100962.28;5016201;28;19925;-61
2021/08/24 05:32:05;;;;;;;;;;;;;;;15.84;75.05;100969.28;5014779;28;19932;-62
2021/08/24 05:34:49;;;;;;;;;;;;;;;15.84;74.92;100969.28;5015659;28;19924;-62
2021/08/24 05:37:33;;;;;;;;;;;;;;;15.83;74.93;100971.00;5016014;28;19924;-61
2021/08/24 05:40:18;;;;;;;;;;;;;;;15.84;75.01;100977.09;5015972;28;20273;-64
2021/08/24 05:43:01;;;;;;;;;;;;;;;15.86;74.87;100979.75;5015392;28;19948;-61
2021/08/24 05:45:52;;;;;;;;;;;;;;;15.85;75.17;100984.13;5015960;28;20394;-63
2021/08/24 05:48:36;;;;;;;;;;;;;;;15.84;75.15;100983.19;5015213;28;20007;-63
2021/08/24 05:51:21;;;;;;;;;;;;;;;15.84;75.03;100988.41;5014844;28;19924;-62
2021/08/24 05:54:08;;;;;;;;;;;;;;;15.84;74.99;100987.56;5014348;28;19967;-63
2021/08/24 05:56:52;;;;;;;;;;;;;;;15.86;74.98;100980.66;5014711;28;19941;-63
2021/08/24 05:59:36;;;;;;;;;;;;;;;15.86;75.04;100987.59;5015276;28;19924;-63
2021/08/24 06:02:20;;;;;;;;;;;;;;;15.86;74.98;100984.97;5015144;28;19964;-63
2021/08/24 06:05:06;;;;;;;;;;;;;;;15.84;74.88;100985.81;5014695;28;20347;-63
2021/08/24 06:07:50;;;;;;;;;;;;;;;15.86;74.84;100993.72;5014173;28;20403;-63
2021/08/24 06:10:35;;;;;;;;;;;;;;;15.88;74.96;100983.25;5015298;28;19924;-63
2021/08/24 06:13:19;;;;;;;;;;;;;;;15.89;74.85;100980.66;5014356;28;19924;-63
2021/08/24 06:16:03;;;;;;;;;;;;;;;15.90;75.08;100987.63;5015452;28;19925;-63
2021/08/24 06:18:47;;;;;;;;;;;;;;;15.91;74.89;100989.38;5015629;28;20272;-63
2021/08/24 06:21:31;;;;;;;;;;;;;;;15.93;74.87;100997.25;5015580;28;19967;-62
2021/08/24 06:24:19;;;;;;;;;;;;;;;15.95;75.07;101000.78;5015325;28;19956;-63
2021/08/24 06:27:04;;;;;;;;;;;;;;;15.93;75.09;100999.88;5000703;28;19925;-63
2021/08/24 06:29:48;;;;;;;;;;;;;;;15.94;74.97;100991.19;5015170;28;19924;-63
2021/08/24 06:32:34;;;;;;;;;;;;;;;15.94;74.88;101001.63;5014859;28;19982;-63
2021/08/24 06:35:19;;;;;;;;;;;;;;;15.95;75.02;100992.94;5014680;28;19967;-64
2021/08/24 06:38:03;;;;;;;;;;;;;;;15.96;74.89;100992.06;5000606;28;20414;-63
2021/08/24 06:40:47;;;;;;;;;;;;;;;15.96;75.10;100995.53;5015329;28;19924;-63
2021/08/24 06:43:31;;;;;;;;;;;;;;;15.97;74.91;100993.78;5014533;28;20009;-63
2021/08/24 06:46:15;;;;;;;;;;;;;;;15.97;74.90;100988.56;5014189;28;20346;-62
2021/08/24 06:48:59;;;;;;;;;;;;;;;15.98;74.88;100990.31;5014480;28;19989;-62
2021/08/24 06:51:43;;;;;;;;;;;;;;;15.99;74.91;100994.69;5014604;28;20063;-63
2021/08/24 06:54:29;;;;;;;;;;;;;;;15.99;75.06;100997.31;5014684;28;20015;-63
2021/08/24 06:57:13;;;;;;;;;;;;;;;16.01;75.08;101000.81;5014629;28;19924;-63
2021/08/24 06:59:57;;;;;;;;;;;;;;;16.01;75.02;101003.41;5014981;28;19964;-63
2021/08/24 07:02:41;;;;;;;;;;;;;;;16.02;74.91;101004.31;5014269;28;20356;-63
2021/08/24 07:05:28;;;;;;;;;;;;;;;16.03;75.10;101016.53;5014609;28;20344;-61
2021/08/24 07:08:12;;;;;;;;;;;;;;;16.03;74.92;101008.69;5013493;28;19924;-61
2021/08/24 07:10:55;;;;;;;;;;;;;;;16.03;74.91;101019.16;5014280;28;19928;-62
2021/08/24 07:13:39;;;;;;;;;;;;;;;16.04;74.93;101019.16;5013366;28;20403;-61
2021/08/24 07:16:24;;;;;;;;;;;;;;;16.05;74.99;101017.38;5014595;28;19924;-61
2021/08/24 07:19:08;;;;;;;;;;;;;;;16.04;74.85;101011.28;5013979;28;20005;-61
2021/08/24 07:21:52;;;;;;;;;;;;;;;16.06;74.89;101021.75;4999187;28;19924;-63
2021/08/24 07:24:39;;;;;;;;;;;;;;;16.06;74.91;101019.16;5014292;28;20479;-63
2021/08/24 07:27:23;;;;;;;;;;;;;;;16.07;74.89;101010.44;5013364;28;19946;-63
2021/08/24 07:30:08;;;;;;;;;;;;;;;16.07;75.03;101020.91;5014197;28;19925;-62
2021/08/24 07:32:51;;;;;;;;;;;;;;;16.08;74.96;101018.31;5013843;28;19925;-61
2021/08/24 07:35:35;;;;;;;;;;;;;;;16.09;74.96;101019.19;5014296;28;19928;-61
2021/08/24 07:38:19;;;;;;;;;;;;;;;16.08;74.89;101017.41;5013480;28;19971;-61
2021/08/24 07:41:04;;;;;;;;;;;;;;;16.09;74.79;101025.31;5013390;28;19970;-61
2021/08/24 07:43:48;;;;;;;;;;;;;;;16.09;74.92;101014.84;5012923;28;19968;-61
2021/08/24 07:46:34;;;;;;;;;;;;;;;16.10;75.13;101018.31;5013367;28;19944;-63
2021/08/24 07:49:18;;;;;;;;;;;;;;;16.11;74.94;101022.69;5013452;28;20344;-63
2021/08/24 07:52:03;;;;;;;;;;;;;;;16.12;75.04;101019.22;5013155;28;19940;-63
2021/08/24 07:54:47;;;;;;;;;;;;;;;16.11;74.88;101034.03;5012977;28;19939;-63
2021/08/24 07:57:31;;;;;;;;;;;;;;;16.13;74.92;101032.28;5013835;28;19967;-63
2021/08/24 08:00:15;;;;;;;;;;;;;;;16.13;75.08;101032.28;5013894;28;19963;-63
2021/08/24 08:02:59;;;;;;;;;;;;;;;16.14;75.11;101026.19;5013548;28;19923;-63
2021/08/24 08:05:42;;;;;;;;;;;;;;;16.14;75.10;101023.56;5013706;28;19968;-63
2021/08/24 08:08:26;;;;;;;;;;;;;;;16.16;75.18;101022.72;5013805;28;20391;-63
2021/08/24 08:11:10;;;;;;;;;;;;;;;16.15;75.10;101024.47;5014242;28;20438;-62
2021/08/24 08:13:54;;;;;;;;;;;;;;;16.17;75.12;101032.31;5013323;28;19924;-63
2021/08/24 08:16:42;;;;;;;;;;;;;;;16.18;74.97;101026.22;5014045;28;20399;-63
2021/08/24 08:19:26;;;;;;;;;;;;;;;16.17;75.04;101020.13;5012952;28;19928;-63
2021/08/24 08:22:10;;;;;;;;;;;;;;;16.18;74.98;101019.28;5014082;28;19924;-63
2021/08/24 08:24:54;;;;;;;;;;;;;;;16.20;74.94;101014.03;5013827;28;20446;-63
2021/08/24 08:27:39;;;;;;;;;;;;;;;16.21;75.04;101018.41;5017079;28;19964;-63
2021/08/24 08:30:22;;;;;;;;;;;;;;;16.21;75.13;101018.41;5016928;28;19988;-63
2021/08/24 08:33:06;;;;;;;;;;;;;;;16.22;74.94;101023.66;5017444;28;19959;-63
2021/08/24 08:35:50;;;;;;;;;;;;;;;16.22;75.21;101026.25;5017084;28;19923;-63
2021/08/24 08:38:34;;;;;;;;;;;;;;;16.23;75.12;101028.00;5016063;28;19924;-63
2021/08/24 08:41:34;;;;;;;;;;;;;;;16.24;75.08;101027.16;5015685;28;19925;-62
2021/08/24 08:44:24;;;;;;;;;;;;;;;16.26;74.88;101037.66;5002193;28;20013;-63
2021/08/24 08:47:27;;;;;;;;;;;;;;;16.27;74.88;101035.03;5017020;28;20017;-63
2021/08/24 08:50:30;;;;;;;;;;;;;;;16.28;74.92;101031.56;5017020;28;19924;-63
2021/08/24 08:53:23;;;;;;;;;;;;;;;16.30;75.09;101026.31;5016402;28;19924;-63
2021/08/24 08:56:07;;;;;;;;;;;;;;;16.30;75.02;101023.72;5016664;28;20418;-63
2021/08/24 08:59:04;;;;;;;;;;;;;;;16.32;75.07;101026.34;5017254;28;20411;-63
2021/08/24 09:01:57;;;;;;;;;;;;;;;16.32;75.04;101021.97;5015520;28;19924;-63
2021/08/24 09:04:43;;;;;;;;;;;;;;;16.33;75.03;101022.88;5016971;28;19925;-63
2021/08/24 09:07:36;;;;;;;;;;;;;;;16.34;75.09;101022.00;5016496;28;19923;-63
2021/08/24 09:10:22;;;;;;;;;;;;;;;16.35;74.86;101016.78;5002113;28;20281;-63
2021/08/24 09:13:26;;;;;;;;;;;;;;;16.36;74.93;101021.16;5016290;28;19980;-62
2021/08/24 09:16:16;;;;;;;;;;;;;;;16.37;75.03;101019.41;5016441;28;20392;-63
2021/08/24 09:19:04;;;;;;;;;;;;;;;16.39;74.88;101018.56;5015951;28;19924;-63
2021/08/24 09:21:48;;;;;;;;;;;;;;;16.40;74.89;101020.31;5015307;28;19971;-63
2021/08/24 09:24:34;;;;;;;;;;;;;;;16.42;74.90;101018.59;5016256;28;19925;-63
2021/08/24 09:27:21;;;;;;;;;;;;;;;16.43;75.02;101016.84;5015851;28;19924;-63
2021/08/24 09:30:06;;;;;;;;;;;;;;;16.44;74.80;101011.59;5015481;28;20367;-63
2021/08/24 09:32:50;;;;;;;;;;;;;;;16.46;75.19;101016.88;5015669;28;19972;-63
2021/08/24 09:35:36;;;;;;;;;;;;;;;16.48;74.93;101023.00;5015007;28;19925;-62
2021/08/24 09:38:28;;;;;;;;;;;;;;;16.50;74.75;101020.38;5015216;28;19959;-61
2021/08/24 09:41:20;;;;;;;;;;;;;;;16.50;74.93;101016.03;5014971;28;19970;-61
2021/08/24 09:44:24;;;;;;;;;;;;;;;16.52;74.78;101016.03;5014842;28;19924;-62
2021/08/24 09:47:16;;;;;;;;;;;;;;;16.54;74.80;101006.47;5015020;28;19924;-62
2021/08/24 09:50:08;;;;;;;;;;;;;;;16.55;75.02;101010.81;5014794;28;19968;-62
2021/08/24 09:52:55;;;;;;;;;;;;;;;16.55;74.77;100995.13;5014842;28;19924;-61
2021/08/24 09:55:47;;;;;;;;;;;;;;;16.57;74.95;101002.09;5014891;28;20366;-61
2021/08/24 09:58:36;;;;;;;;;;;;;;;16.57;74.93;100996.00;5014571;28;19925;-61
2021/08/24 10:01:21;;;;;;;;;;;;;;;16.59;74.86;100994.25;5000696;28;20020;-61
2021/08/24 10:04:07;;;;;;;;;;;;;;;16.59;74.84;100999.50;5001052;28;19948;-62
2021/08/24 10:07:01;;;;;;;;;;;;;;;16.59;75.06;100991.63;5015886;28;19940;-61
2021/08/24 10:09:56;;;;;;;;;;;;;;;16.62;74.88;100991.66;5014950;28;19924;-62
2021/08/24 10:12:40;;;;;;;;;;;;;;;16.64;74.92;100989.06;5000818;28;19924;-62
2021/08/24 10:15:30;;;;;;;;;;;;;;;16.64;75.00;100987.31;5015733;28;20385;-61
2021/08/24 10:18:22;;;;;;;;;;;;;;;16.65;74.94;100977.75;5000881;28;20031;-61
2021/08/24 10:21:10;;;;;;;;;;;;;;;16.68;74.83;100980.34;5015626;28;19975;-61
2021/08/24 10:24:02;;;;;;;;;;;;;;;16.68;74.67;100973.41;5000690;28;20403;-61
2021/08/24 10:26:54;;;;;;;;;;;;;;;16.68;74.70;100976.00;5014174;28;19964;-61
2021/08/24 10:29:39;;;;;;;;;;;;;;;16.69;74.96;100974.25;5014541;28;19964;-62
2021/08/24 10:32:43;;;;;;;;;;;;;;;16.69;74.80;100964.69;5014879;28;19924;-62
2021/08/24 10:35:30;;;;;;;;;;;;;;;16.69;74.81;100971.63;5015328;28;19924;-62
2021/08/24 10:38:37;;;;;;;;;;;;;;;16.70;74.88;100970.78;5015346;28;19924;-62
2021/08/24 10:41:27;;;;;;;;;;;;;;;16.71;74.88;100968.19;5014375;28;20272;-62
2021/08/24 10:44:17;;;;;;;;;;;;;;;16.72;74.87;100966.41;5013954;28;19923;-62
2021/08/24 10:47:06;;;;;;;;;;;;;;;16.72;74.83;100963.81;5014937;28;19983;-63
2021/08/24 10:49:51;;;;;;;;;;;;;;;16.71;74.90;100965.56;5014381;28;19972;-62
2021/08/24 10:52:57;;;;;;;;;;;;;;;16.71;74.80;100960.34;5013382;28;19924;-61
2021/08/24 10:56:02;;;;;;;;;;;;;;;16.71;74.85;100965.56;5014732;28;19975;-61
2021/08/24 10:58:53;;;;;;;;;;;;;;;16.72;74.67;100964.69;4999662;28;20028;-62
2021/08/24 11:01:43;;;;;;;;;;;;;;;16.73;74.64;100966.44;5013774;28;19924;-62
2021/08/24 11:04:27;;;;;;;;;;;;;;;16.75;74.90;100966.44;5014006;28;20337;-61
2021/08/24 11:07:24;;;;;;;;;;;;;;;16.76;74.81;100962.97;5014497;28;20380;-62
2021/08/24 11:10:27;;;;;;;;;;;;;;;16.78;74.77;100960.34;5014852;28;19924;-61
2021/08/24 11:13:29;;;;;;;;;;;;;;;16.79;74.61;100955.13;5014290;28;19924;-62
2021/08/24 11:16:36;;;;;;;;;;;;;;;16.79;74.65;100955.13;5013467;28;19923;-62
2021/08/24 11:19:26;;;;;;;;;;;;;;;16.81;74.83;100960.38;4999684;28;20371;-62
2021/08/24 11:22:29;;;;;;;;;;;;;;;16.81;74.73;100950.78;5014087;28;19955;-62
2021/08/24 11:25:16;;;;;;;;;;;;;;;16.81;74.50;100952.50;5013301;28;19940;-61
2021/08/24 11:28:12;;;;;;;;;;;;;;;16.80;74.31;100959.50;5014562;28;19970;-62
2021/08/24 11:31:08;;;;;;;;;;;;;;;16.78;74.13;100955.09;4999210;28;20396;-64
2021/08/24 11:33:59;;;;;;;;;;;;;;;16.75;74.16;100962.06;5013246;28;19924;-63
2021/08/24 11:36:55;;;;;;;;;;;;;;;16.74;73.74;100968.16;5013710;28;19924;-63
2021/08/24 11:39:45;;;;;;;;;;;;;;;16.74;73.79;100949.84;4999168;28;19971;-63
2021/08/24 11:42:42;;;;;;;;;;;;;;;16.73;73.58;100961.22;5014030;28;19924;-63
2021/08/24 11:45:51;;;;;;;;;;;;;;;16.72;73.75;100941.16;5013226;28;19967;-61
2021/08/24 11:48:46;;;;;;;;;;;;;;;16.72;73.41;100945.47;4999111;28;20020;-62
2021/08/24 11:51:39;;;;;;;;;;;;;;;16.72;73.55;100940.25;5014010;28;20011;-61
2021/08/24 11:54:42;;;;;;;;;;;;;;;16.72;73.55;100951.63;5013267;28;19924;-61
2021/08/24 11:57:40;;;;;;;;;;;;;;;16.73;73.39;100948.13;5012858;28;19928;-61
2021/08/24 12:00:24;;;;;;;;;;;;;;;16.74;73.32;100955.09;5015352;28;19944;-62
2021/08/24 12:03:12;;;;;;;;;;;;;;;16.74;73.10;100955.09;5017458;28;19924;-61
2021/08/24 12:06:06;;;;;;;;;;;;;;;16.74;73.11;100960.31;5017671;28;19943;-62
2021/08/24 12:09:00;;;;;;;;;;;;;;;16.74;73.15;100957.69;5016997;28;19924;-61
2021/08/24 12:11:59;;;;;;;;;;;;;;;16.74;72.93;100957.69;5016627;28;20339;-61
2021/08/24 12:15:04;;;;;;;;;;;;;;;16.74;72.97;100955.09;5016842;28;19924;-61
2021/08/24 12:18:09;;;;;;;;;;;;;;;16.74;72.90;100956.84;5016212;28;19925;-62
2021/08/24 12:21:26;;;;;;;;;;;;;;;16.74;72.80;100952.47;5002478;28;19924;-61
2021/08/24 12:24:28;;;;;;;;;;;;;;;16.72;72.75;100951.63;5017340;28;19964;-61
2021/08/24 12:27:13;;;;;;;;;;;;;;;16.72;72.59;100954.22;5017250;28;19968;-61
2021/08/24 12:30:14;;;;;;;;;;;;;;;16.72;72.60;100949.00;5016780;28;19925;-61
2021/08/24 12:33:11;;;;;;;;;;;;;;;16.73;72.49;100953.38;5017440;28;20060;-61
2021/08/24 12:35:58;;;;;;;;;;;;;;;16.74;72.65;100951.59;5002470;28;19924;-62
2021/08/24 12:38:54;;;;;;;;;;;;;;;16.74;72.53;100944.63;5016239;28;19964;-61
2021/08/24 12:41:47;;;;;;;;;;;;;;;16.76;72.62;100944.63;5017464;28;19979;-61
2021/08/24 12:44:52;;;;;;;;;;;;;;;16.77;72.44;100940.25;5016167;28;19924;-61
2021/08/24 12:47:49;;;;;;;;;;;;;;;16.78;72.63;100947.25;5015574;28;20407;-61
2021/08/24 12:50:39;;;;;;;;;;;;;;;16.77;72.25;100935.94;5015828;28;20016;-62
2021/08/24 12:53:26;;;;;;;;;;;;;;;16.77;72.26;100940.25;5015934;28;19963;-62
2021/08/24 12:56:35;;;;;;;;;;;;;;;16.75;72.01;100938.50;5016772;28;19939;-62
2021/08/24 12:59:33;;;;;;;;;;;;;;;16.75;72.04;100943.75;5016868;28;20023;-63
2021/08/24 13:02:32;;;;;;;;;;;;;;;16.75;71.99;100938.50;5015681;28;19924;-63
2021/08/24 13:05:28;;;;;;;;;;;;;;;16.76;71.93;100928.94;5015460;28;19970;-61
2021/08/24 13:08:30;;;;;;;;;;;;;;;16.79;72.04;100930.69;5015998;28;20432;-63
2021/08/24 13:11:47;;;;;;;;;;;;;;;16.78;71.87;100927.19;5015338;28;19923;-63
2021/08/24 13:15:05;;;;;;;;;;;;;;;16.79;71.72;100921.09;5016954;28;19983;-63
2021/08/24 13:17:49;;;;;;;;;;;;;;;16.78;71.81;100915.84;5011873;28;19924;-62
2021/08/24 13:20:51;;;;;;;;;;;;;;;16.78;71.51;100924.59;5015448;28;20443;-62
2021/08/24 13:23:37;;;;;;;;;;;;;;;16.79;71.38;100913.25;5015719;28;19925;-63
2021/08/24 13:26:40;;;;;;;;;;;;;;;16.80;71.37;100911.50;5015610;28;19963;-63
2021/08/24 13:29:32;;;;;;;;;;;;;;;16.80;71.47;100915.00;5015585;28;19923;-63
2021/08/24 13:32:30;;;;;;;;;;;;;;;16.81;71.58;100908.00;5016289;28;20418;-63
2021/08/24 13:35:23;;;;;;;;;;;;;;;16.81;71.28;100910.63;5015245;28;19962;-63
2021/08/24 13:38:28;;;;;;;;;;;;;;;16.83;71.62;100909.75;5014709;28;19989;-63
2021/08/24 13:41:11;;;;;;;;;;;;;;;16.83;71.00;100903.66;5015929;28;19924;-63
2021/08/24 13:43:59;;;;;;;;;;;;;;;16.84;71.38;100903.66;5015389;28;19948;-63
2021/08/24 13:46:52;;;;;;;;;;;;;;;16.86;71.18;100899.31;5015512;28;19959;-63
2021/08/24 13:49:39;;;;;;;;;;;;;;;16.87;71.25;100894.97;5014644;28;19944;-61
2021/08/24 13:52:35;;;;;;;;;;;;;;;16.87;71.03;100901.06;5015187;28;19923;-62
2021/08/24 13:55:28;;;;;;;;;;;;;;;16.86;71.01;100894.06;5015220;28;19971;-62
2021/08/24 13:58:24;;;;;;;;;;;;;;;16.87;71.15;100892.34;5014731;28;20336;-63
2021/08/24 14:01:25;;;;;;;;;;;;;;;16.87;71.14;100887.97;5014301;28;20012;-63
2021/08/24 14:04:44;;;;;;;;;;;;;;;16.88;71.10;100881.84;5014713;28;19925;-62
2021/08/24 14:07:39;;;;;;;;;;;;;;;16.88;70.99;100887.09;5000201;28;19924;-62
2021/08/24 14:10:31;;;;;;;;;;;;;;;16.89;70.92;100883.59;5014698;28;19924;-61
2021/08/24 14:13:18;;;;;;;;;;;;;;;16.91;71.03;100886.22;5014101;28;19924;-61
2021/08/24 14:16:14;;;;;;;;;;;;;;;16.91;70.88;100886.22;5014563;28;20395;-61
2021/08/24 14:19:12;;;;;;;;;;;;;;;16.90;70.74;100876.63;5014470;28;19923;-61
2021/08/24 14:21:59;;;;;;;;;;;;;;;16.90;70.79;100884.47;5014328;28;19924;-62
2021/08/24 14:24:52;;;;;;;;;;;;;;;16.91;70.60;100880.97;5013953;28;20009;-62
2021/08/24 14:27:42;;;;;;;;;;;;;;;16.92;70.66;100885.34;5013814;28;19928;-61